Albers, Illinois
Current Conditions -  °F | °C
As of 10:43 PM on Wednesday 22 Oct 2014 (Local Time) from KBLV Reporting Station
Haze Haze  
Wind Chill: 43°   Ceiling: Unl
Heat Index: 43°   Visibility: 6mi
Dew Point: 41°   Wind: 2mph
Humidity: 93%   Direction: 260°W
Pressure: 30.25"   Gusts: NA
Location:  38.54°N, 89.61°W
Report Text: KBLV 230343Z AUTO 26002KT 6SM R14L/5000FT BR CLR 06/05 A3025 RMK AO2
Loading
Personal Weather Stations






























Interactive Weather Map
Tropical Storm Tracking
New forecast layout! Learn more

10-Day Weather Forecast

Advertisements
Track Severe Weather on mobile